• Join FlightAware (Why Join?)
  • Login
  • US Flag 
01:59PM EDT


 

Airport Tracker/Info


-or-


 

Live Flight TrackerFlight Track Log ✈ DAL3796 ✈ 07-Jul-2014 ✈ KDTW - KDSM

Flight Track Log - Related Links

Times and Time Zones

All times are in EDT time to prevent confusion due to time zone crossing. See the DAL3796 flight status page for this flight to view local times or setup timezone preferences in your user account.

Time Position Orientation Groundspeed Altitude Reporting Facility
EDT Latitude Longitude Course Direction KTS MPH feet Rate Location/Type
08:39PM 42.2014 -83.3722 223° Southwest 166 191 1,200  Level Cleveland Center
08:39PM 42.1714 -83.4100 223° Southwest 205 236 2,500 1,740 Climbing Cleveland Center
08:40PM 42.1497 -83.4689 244° Southwest 227 261 4,200 1,860 Climbing Cleveland Center
08:41PM 42.1619 -83.5008 297° West 229 264 5,000 2,100 Climbing Cleveland Center
08:42PM 42.1842 -83.5642 295° West 267 307 6,600 2,280 Climbing Cleveland Center
08:42PM 42.1958 -83.5892 302° West 254 292 7,400 2,460 Climbing Cleveland Center
08:43PM 42.2297 -83.6794 297° West 265 305 10,000 1,740 Climbing Cleveland Center
08:44PM 42.2661 -83.7739 298° West 280 322 11,000 900 Climbing Cleveland Center
08:45PM 42.3081 -83.8839 297° West 322 371 11,900 780 Climbing Cleveland Center
08:46PM 42.3531 -84.0017 297° West 349 402 12,700 780 Climbing Cleveland Center
08:47PM 42.3997 -84.1233 297° West 363 418 13,600 900 Climbing Cleveland Center
08:48PM 42.4269 -84.2569 285° West 370 426 14,600 960 Climbing Cleveland Center
08:49PM 42.4319 -84.3961 273° West 370 426 15,600 960 Climbing Cleveland Center
08:50PM 42.4375 -84.5356 273° West 371 427 16,600 960 Climbing Cleveland Center
08:51PM 42.4403 -84.6906 271° West 373 429 17,700 1,080 Climbing Cleveland Center
08:52PM 42.4436 -84.8289 272° West 373 429 18,900 780 Climbing Cleveland Center
08:53PM 42.4472 -84.9686 272° West 372 428 19,400 480 Climbing Cleveland Center
08:54PM 42.4503 -85.1403 271° West 375 432 20,000 600 Climbing Cleveland Center
08:55PM 42.4531 -85.2833 272° West 378 435 20,800 720 Climbing Chicago Center
08:56PM 42.4558 -85.4253 272° West 379 436 21,700 780 Climbing Chicago Center
08:57PM 42.4592 -85.5942 272° West 377 434 22,500 720 Climbing Chicago Center
08:58PM 42.4611 -85.7347 271° West 377 434 23,200 540 Climbing Chicago Center
08:59PM 42.4619 -85.8742 271° West 376 433 23,700 480 Climbing Chicago Center
09:01PM 42.4647 -86.0161 272° West 375 432 24,200 480 Climbing Chicago Center
09:02PM 42.4583 -86.1531 266° West 370 426 24,700 480 Climbing Chicago Center
09:03PM 42.4414 -86.2919 261° West 367 422 25,200 480 Climbing Chicago Center
09:04PM 42.4242 -86.4292 260° West 368 423 25,800 540 Climbing Chicago Center
09:05PM 42.4033 -86.5925 260° West 368 423 26,400 480 Climbing Chicago Center
09:06PM 42.3881 -86.7183 261° West 367 422 26,800 480 Climbing Chicago Center
09:07PM 42.3692 -86.8644 260° West 367 422 27,400 480 Climbing Chicago Center
09:08PM 42.3508 -87.0139 261° West 366 421 27,900 480 Climbing Chicago Center
09:09PM 42.3322 -87.1422 259° West 353 406 28,400 480 Climbing Chicago Center
09:10PM 42.3139 -87.2783 260° West 362 417 28,900 480 Climbing Chicago Center
09:11PM 42.2969 -87.4106 260° West 361 415 29,400 480 Climbing Chicago Center
09:12PM 42.2786 -87.5428 259° West 361 415 29,900 480 Climbing Chicago Center
09:13PM 42.2597 -87.6742 259° West 360 414 30,400 480 Climbing Chicago Center
09:14PM 42.2381 -87.8317 260° West 359 413 31,000 480 Climbing Chicago Center
09:15PM 42.2200 -87.9586 259° West 350 403 31,500 480 Climbing Chicago Center
09:16PM 42.1983 -88.0864 257° West 350 403 32,000 240 Climbing Chicago Center
09:17PM 42.1747 -88.2133 256° West 350 403 32,000  Level Chicago Center
09:18PM 42.1522 -88.3411 257° West 352 405 32,000  Level Chicago Center
09:19PM 42.1242 -88.5003 257° West 359 413 32,000  Level Chicago Center
09:20PM 42.1003 -88.6336 256° West 364 419 32,000  Level Chicago Center
09:21PM 42.0764 -88.7658 256° West 366 421 32,000 -540 Level Chicago Center
09:22PM 42.0625 -88.9075 263° West 379 436 31,000 -1,020 Descending Chicago Center
09:23PM 42.0492 -89.0550 263° West 390 449 30,000 -540 Descending Chicago Center
09:24PM 42.0350 -89.2050 263° West 399 459 30,000  Level Chicago Center
09:25PM 42.0183 -89.3808 263° West 398 458 30,000  Level Chicago Center
09:26PM 42.0044 -89.5250 263° West 392 451 30,000  Level Chicago Center
09:27PM 41.9911 -89.6664 263° West 386 444 30,000  Level Chicago Center
09:28PM 41.9767 -89.8103 262° West 388 447 30,000  Level Chicago Center
09:29PM 41.9636 -89.9597 263° West 388 447 30,000  Level Chicago Center
09:30PM 41.9486 -90.1014 262° West 389 448 30,000  Level Chicago Center
09:31PM 41.9358 -90.2406 263° West 382 440 30,000  Level Chicago Center
09:32PM 41.9200 -90.3828 262° West 383 441 30,000  Level Chicago Center
09:34PM 41.9036 -90.5503 263° West 382 440 30,000  Level Chicago Center
09:35PM 41.8875 -90.6942 261° West 391 450 30,000  Level Chicago Center
09:36PM 41.8722 -90.8339 262° West 386 444 30,000  Level Chicago Center
09:37PM 41.8575 -90.9742 262° West 386 444 30,000  Level Chicago Center
09:38PM 41.8419 -91.1144 262° West 384 442 30,000  Level Chicago Center
09:39PM 41.8261 -91.2569 262° West 385 443 30,000  Level Chicago Center
09:40PM 41.8072 -91.4264 262° West 385 443 30,000 -360 Level Chicago Center
09:41PM 41.7911 -91.5664 261° West 385 443 29,300 -1,020 Descending Chicago Center
09:42PM 41.7742 -91.7169 261° West 404 465 28,000 -1,140 Descending Chicago Center
09:43PM 41.7575 -91.8672 262° West 406 467 27,000 -1,440 Descending Chicago Center
09:44PM 41.7397 -92.0181 261° West 410 472 25,100 -1,920 Descending Chicago Center
09:45PM 41.7217 -92.1736 261° West 421 484 23,100 -2,160 Descending Chicago Center
09:46PM 41.6994 -92.3533 261° West 414 476 20,700 -2,160 Descending Chicago Center
09:47PM 41.6819 -92.5000 261° West 406 467 18,700 -2,100 Descending Chicago Center
09:48PM 41.6647 -92.6422 261° West 398 458 16,500 -2,220 Descending Chicago Center
09:49PM 41.6442 -92.7575 257° West 388 447 14,800 -2,280 Descending Minneapolis Center
09:50PM 41.6189 -92.8883 256° West 375 432 12,500 -2,100 Descending Minneapolis Center
09:51PM 41.5947 -93.0119 255° West 358 412 10,500 -1,500 Descending Minneapolis Center
09:52PM 41.5731 -93.1161 254° West 276 318 9,500 -1,380 Descending Minneapolis Center
09:52PM 41.5667 -93.1692 261° West 261 300 8,400 -1,800 Descending Minneapolis Center
09:53PM 41.5533 -93.2214 251° West 270 311 7,700 -1,620 Descending Minneapolis Center
09:53PM 41.5494 -93.2642 263° West 263 303 6,800 -1,560 Descending Minneapolis Center
09:54PM 41.5350 -93.3139 249° West 263 303 6,100 -1,620 Descending Minneapolis Center
09:54PM 41.5322 -93.3561 265° West 258 297 5,200 -1,800 Descending Minneapolis Center
09:55PM 41.5150 -93.4139 248° West 261 300 4,300 -1,620 Descending Minneapolis Center
09:55PM 41.5147 -93.4508 269° West 259 298 3,600 -1,500 Descending Minneapolis Center
09:56PM 41.5031 -93.5078 255° West 260 299 2,800 -1,020 Descending Minneapolis Center
09:56PM 41.5056 -93.5372 276° West 230 265 2,600 -540 Descending Minneapolis Center
09:57PM 41.4969 -93.5825 256° West 201 231 2,300 -840 Descending Minneapolis Center
09:57PM 41.5064 -93.5981 309° West 144 166 1,800 -900 Descending Minneapolis Center
09:58PM 41.5158 -93.6311 291° West 142 163 1,400 -600 Descending Minneapolis Center
09:59PM 41.5383 -93.6622 314° West 115 132 900 -300 Descending Minneapolis Center
10:00PM 41.5375 -93.6578 104° East 59 68 900  Level Minneapolis Center
10:01PM 41.5356 -93.6508 111° Southeast 23 26 900  Level Minneapolis Center
10:02PM 41.5344 -93.6483 121° Southeast 15 17 900  Level Minneapolis Center
10:03PM 41.5328 -93.6503 221° Southwest 12 14 900  Level Minneapolis Center